createdAt,value
2023-06-29T00:00:24.167Z,101187.41
2023-06-29T00:02:51.241Z,101177.03
2023-06-29T00:05:19.779Z,101185.81
2023-06-29T00:07:46.498Z,101183.75
2023-06-29T00:10:17.211Z,101177.66
2023-06-29T00:12:43.990Z,101181.91
2023-06-29T00:15:11.095Z,101179.88
2023-06-29T00:17:38.101Z,101181.06
2023-06-29T00:20:10.773Z,101178.56
2023-06-29T00:22:41.702Z,101170.50
2023-06-29T00:25:11.907Z,101166.00
2023-06-29T00:27:38.647Z,101173.13
2023-06-29T00:30:06.074Z,101170.31
2023-06-29T00:32:32.889Z,101176.69
2023-06-29T00:34:59.801Z,101177.84
2023-06-29T00:37:26.458Z,101172.59
2023-06-29T00:39:53.097Z,101174.22
2023-06-29T00:42:19.812Z,101169.66
2023-06-29T00:44:48.055Z,101173.91
2023-06-29T00:47:15.093Z,101175.09
2023-06-29T00:49:42.552Z,101174.66
2023-06-29T00:52:09.295Z,101186.09
2023-06-29T00:54:36.361Z,101187.63
2023-06-29T00:57:03.196Z,101184.84
2023-06-29T00:59:29.945Z,101193.19
2023-06-29T01:01:56.908Z,101191.22
2023-06-29T01:04:27.216Z,101194.91
2023-06-29T01:07:07.390Z,101200.50
2023-06-29T01:09:36.161Z,101199.69
2023-06-29T01:12:04.619Z,101198.06
2023-06-29T01:14:34.397Z,101196.81
2023-06-29T01:17:03.452Z,101191.16
2023-06-29T01:19:32.698Z,101196.22
2023-06-29T01:22:04.645Z,101199.00
2023-06-29T01:24:40.159Z,101194.97
2023-06-29T01:27:13.798Z,101196.03
2023-06-29T01:29:40.685Z,101194.78
2023-06-29T01:32:08.579Z,101195.97
2023-06-29T01:34:37.378Z,101195.97
2023-06-29T01:37:08.176Z,101197.16
2023-06-29T01:39:51.117Z,101199.94
2023-06-29T01:42:21.027Z,101203.88
2023-06-29T01:44:49.233Z,101193.41
2023-06-29T01:47:18.325Z,101200.94
2023-06-29T01:49:45.508Z,101199.69
2023-06-29T01:52:12.517Z,101196.53
2023-06-29T01:54:39.291Z,101208.50
2023-06-29T01:57:06.998Z,101208.16
2023-06-29T01:59:33.959Z,101201.22
2023-06-29T02:02:01.118Z,101197.19
2023-06-29T02:04:27.796Z,101201.06
2023-06-29T02:06:54.617Z,101194.25
2023-06-29T02:09:21.457Z,101196.13
2023-06-29T02:11:48.120Z,101194.88
2023-06-29T02:14:14.773Z,101202.81
2023-06-29T02:16:41.538Z,101207.13
2023-06-29T02:19:08.202Z,101205.38
2023-06-29T02:21:34.862Z,101206.13
2023-06-29T02:24:01.605Z,101213.59
2023-06-29T02:26:30.047Z,101207.56
2023-06-29T02:28:56.810Z,101205.94
2023-06-29T02:31:23.537Z,101208.28
2023-06-29T02:33:50.633Z,101203.53
2023-06-29T02:36:19.228Z,101196.44
2023-06-29T02:38:45.862Z,101203.44
2023-06-29T02:41:12.558Z,101202.91
2023-06-29T02:43:39.327Z,101204.09
2023-06-29T02:46:05.984Z,101199.13
2023-06-29T02:48:41.805Z,101206.84
2023-06-29T02:51:08.603Z,101201.63
2023-06-29T02:53:35.245Z,101202.31
2023-06-29T02:56:01.965Z,101204.78
2023-06-29T02:58:28.631Z,101203.13
2023-06-29T03:00:55.325Z,101207.81
2023-06-29T03:03:22.101Z,101200.25
2023-06-29T03:05:48.860Z,101193.81
2023-06-29T03:08:15.570Z,101197.66
2023-06-29T03:10:42.266Z,101205.81
2023-06-29T03:13:10.180Z,101203.28
2023-06-29T03:15:37.137Z,101208.84
2023-06-29T03:18:03.941Z,101202.47
2023-06-29T03:20:30.636Z,101205.19
2023-06-29T03:22:57.299Z,101210.66
2023-06-29T03:25:23.934Z,101205.91
2023-06-29T03:27:50.622Z,101209.38
2023-06-29T03:30:17.347Z,101213.31
2023-06-29T03:32:44.006Z,101210.81
2023-06-29T03:35:10.763Z,101210.81
2023-06-29T03:37:37.522Z,101220.34
2023-06-29T03:40:04.483Z,101206.41
2023-06-29T03:42:31.179Z,101215.03
2023-06-29T03:44:57.876Z,101210.88
2023-06-29T03:47:24.712Z,101221.56
2023-06-29T03:49:51.573Z,101219.94
2023-06-29T03:52:18.379Z,101218.09
2023-06-29T03:54:45.120Z,101215.13
2023-06-29T03:57:11.944Z,101211.91
2023-06-29T03:59:38.625Z,101211.66
2023-06-29T04:02:05.472Z,101208.31
2023-06-29T04:04:32.462Z,101207.44
2023-06-29T04:06:59.228Z,101205.72
2023-06-29T04:09:25.956Z,101216.84
2023-06-29T04:11:53.668Z,101210.34
2023-06-29T04:14:20.353Z,101206.41
2023-06-29T04:16:47.121Z,101209.19
2023-06-29T04:19:15.373Z,101210.78
2023-06-29T04:21:43.676Z,101212.75
2023-06-29T04:24:10.312Z,101207.56
2023-06-29T04:26:39.895Z,101204.91
2023-06-29T04:29:09.727Z,101208.00
2023-06-29T04:31:36.498Z,101208.81
2023-06-29T04:34:04.292Z,101209.44
2023-06-29T04:36:31.649Z,101211.53
2023-06-29T04:38:58.388Z,101215.00
2023-06-29T04:41:32.569Z,101206.22
2023-06-29T04:44:04.708Z,101209.66
2023-06-29T04:46:33.667Z,101212.00
2023-06-29T04:49:06.396Z,101213.16
2023-06-29T04:51:39.351Z,101210.38
2023-06-29T04:54:08.836Z,101217.44
2023-06-29T04:56:35.540Z,101206.56
2023-06-29T04:59:02.264Z,101208.44
2023-06-29T05:01:28.984Z,101204.84
2023-06-29T05:03:55.845Z,101209.22
2023-06-29T05:06:22.493Z,101210.03
2023-06-29T05:08:49.422Z,101216.41
2023-06-29T05:11:16.201Z,101212.47
2023-06-29T05:13:42.850Z,101206.91
2023-06-29T05:16:10.663Z,101214.06
2023-06-29T05:18:38.355Z,101210.97
2023-06-29T05:21:05.435Z,101220.81
2023-06-29T05:23:32.724Z,101207.63
2023-06-29T05:26:00.316Z,101218.72
2023-06-29T05:28:27.172Z,101216.66
2023-06-29T05:30:54.087Z,101214.31
2023-06-29T05:33:20.839Z,101218.28
2023-06-29T05:35:49.621Z,101221.16
2023-06-29T05:38:16.315Z,101221.97
2023-06-29T05:40:43.407Z,101218.50
2023-06-29T05:43:10.460Z,101219.41
2023-06-29T05:45:37.718Z,101228.31
2023-06-29T05:48:04.636Z,101229.03
2023-06-29T05:50:31.355Z,101224.94
2023-06-29T05:52:57.989Z,101231.06
2023-06-29T05:55:25.272Z,101230.75
2023-06-29T05:57:55.149Z,101230.25
2023-06-29T06:00:21.974Z,101239.09
2023-06-29T06:02:48.909Z,101233.03
2023-06-29T06:05:15.754Z,101228.34
2023-06-29T06:07:42.661Z,101224.75
2023-06-29T06:10:09.686Z,101230.78
2023-06-29T06:12:36.428Z,101227.34
2023-06-29T06:15:03.268Z,101230.25
2023-06-29T06:17:29.913Z,101233.06
2023-06-29T06:19:56.862Z,101241.34
2023-06-29T06:22:23.718Z,101241.56
2023-06-29T06:24:50.515Z,101242.44
2023-06-29T06:27:17.201Z,101238.66
2023-06-29T06:29:45.282Z,101234.63
2023-06-29T06:32:12.189Z,101240.19
2023-06-29T06:34:39.022Z,101241.91
2023-06-29T06:37:07.320Z,101245.75
2023-06-29T06:39:33.985Z,101247.47
2023-06-29T06:42:01.218Z,101243.94
2023-06-29T06:44:28.094Z,101239.19
2023-06-29T06:46:55.001Z,101233.63
2023-06-29T06:49:22.863Z,101244.22
2023-06-29T06:51:50.407Z,101237.34
2023-06-29T06:54:20.302Z,101235.09
2023-06-29T06:56:48.320Z,101244.94
2023-06-29T06:59:15.733Z,101237.28
2023-06-29T07:01:42.867Z,101245.38
2023-06-29T07:04:09.669Z,101245.28
2023-06-29T07:06:36.414Z,101254.03
2023-06-29T07:09:04.811Z,101244.75
2023-06-29T07:11:31.699Z,101246.19
2023-06-29T07:13:58.404Z,101247.09
2023-06-29T07:16:26.536Z,101252.31
2023-06-29T07:21:38.198Z,101254.44
2023-06-29T07:24:08.060Z,101248.69
2023-06-29T07:26:35.928Z,101249.81
2023-06-29T07:29:05.209Z,101247.75
2023-06-29T07:31:32.103Z,101247.25
2023-06-29T07:33:58.989Z,101245.78
2023-06-29T07:36:27.719Z,101252.41
2023-06-29T07:38:54.528Z,101246.44
2023-06-29T07:41:22.241Z,101251.13
2023-06-29T07:43:56.837Z,101249.16
2023-06-29T07:46:24.564Z,101256.78
2023-06-29T07:48:52.578Z,101258.81
2023-06-29T07:51:19.326Z,101260.94
2023-06-29T07:53:46.474Z,101272.56
2023-06-29T07:56:13.348Z,101255.59
2023-06-29T07:58:40.514Z,101260.63
2023-06-29T08:01:07.462Z,101265.09
2023-06-29T08:03:44.015Z,101265.06
2023-06-29T08:08:48.304Z,101267.44
2023-06-29T08:11:18.035Z,101263.50
2023-06-29T08:13:44.781Z,101264.78
2023-06-29T08:16:11.677Z,101262.03
2023-06-29T08:18:39.176Z,101252.53
2023-06-29T08:21:06.018Z,101258.13
2023-06-29T08:23:33.895Z,101241.03
2023-06-29T08:26:00.693Z,101249.69
2023-06-29T08:28:27.462Z,101249.31
2023-06-29T08:30:54.211Z,101249.94
2023-06-29T08:33:21.414Z,101251.31
2023-06-29T08:35:48.254Z,101248.06
2023-06-29T08:38:14.903Z,101252.50
2023-06-29T08:40:45.975Z,101251.88
2023-06-29T08:43:16.905Z,101256.91
2023-06-29T08:45:44.150Z,101260.66
2023-06-29T08:48:13.975Z,101257.78
2023-06-29T08:50:46.793Z,101255.28
2023-06-29T08:53:15.002Z,101256.41
2023-06-29T08:55:43.083Z,101254.66
2023-06-29T08:58:10.086Z,101242.03
2023-06-29T09:00:38.765Z,101239.31
2023-06-29T09:03:06.897Z,101236.50
2023-06-29T09:05:36.206Z,101237.25
2023-06-29T09:08:03.649Z,101243.00
2023-06-29T09:10:30.476Z,101241.47
2023-06-29T09:12:57.168Z,101234.63
2023-06-29T09:15:27.176Z,101236.72
2023-06-29T09:17:57.426Z,101236.13
2023-06-29T09:20:26.272Z,101239.28
2023-06-29T09:22:53.312Z,101233.66
2023-06-29T09:25:33.161Z,101229.66
2023-06-29T09:28:03.145Z,101231.44
2023-06-29T09:30:36.528Z,101231.91
2023-06-29T09:33:08.830Z,101223.06
2023-06-29T09:35:37.738Z,101224.63
2023-06-29T09:38:04.466Z,101224.59
2023-06-29T09:40:31.426Z,101226.59
2023-06-29T09:43:02.676Z,101231.03
2023-06-29T09:45:31.841Z,101218.38
2023-06-29T09:50:28.772Z,101214.44
2023-06-29T09:52:56.614Z,101207.91
2023-06-29T09:55:31.066Z,101212.63
2023-06-29T09:57:59.294Z,101223.81
2023-06-29T10:00:28.968Z,101215.72
2023-06-29T10:02:57.163Z,101213.31
2023-06-29T10:05:24.099Z,101207.66
2023-06-29T10:07:54.475Z,101208.53
2023-06-29T10:10:24.891Z,101207.41
2023-06-29T10:12:56.623Z,101197.84
2023-06-29T10:15:26.169Z,101203.84
2023-06-29T10:18:28.105Z,101208.75
2023-06-29T10:20:54.913Z,101203.19
2023-06-29T10:23:26.813Z,101206.44
2023-06-29T10:25:54.495Z,101208.81
2023-06-29T10:28:22.302Z,101197.50
2023-06-29T10:30:52.025Z,101202.69
2023-06-29T10:33:23.839Z,101197.00
2023-06-29T10:36:03.826Z,101209.34
2023-06-29T10:38:34.657Z,101190.47
2023-06-29T10:41:01.894Z,101195.63
2023-06-29T10:43:29.257Z,101194.94
2023-06-29T10:45:55.998Z,101199.44
2023-06-29T10:48:43.110Z,101195.88
2023-06-29T10:51:09.980Z,101198.28
2023-06-29T10:53:36.800Z,101196.22
2023-06-29T10:56:03.654Z,101192.53
2023-06-29T10:58:54.271Z,101194.06
2023-06-29T11:01:21.650Z,101193.63
2023-06-29T11:03:48.586Z,101187.31
2023-06-29T11:09:13.173Z,101187.03
2023-06-29T11:11:41.067Z,101177.38
2023-06-29T11:14:07.839Z,101180.59
2023-06-29T11:16:35.363Z,101181.88
2023-06-29T11:19:03.769Z,101175.06
2023-06-29T11:21:30.477Z,101175.88
2023-06-29T11:23:57.297Z,101177.44
2023-06-29T11:26:24.804Z,101173.41
2023-06-29T11:28:52.660Z,101170.56
2023-06-29T11:31:21.201Z,101176.13
2023-06-29T11:33:49.309Z,101170.06
2023-06-29T11:36:16.472Z,101170.44
2023-06-29T11:38:43.309Z,101174.47
2023-06-29T11:41:10.417Z,101161.94
2023-06-29T11:43:37.426Z,101172.41
2023-06-29T11:46:04.338Z,101161.91
2023-06-29T11:48:31.475Z,101170.28
2023-06-29T11:51:02.058Z,101161.72
2023-06-29T11:53:29.554Z,101166.47
2023-06-29T11:55:57.054Z,101159.16
2023-06-29T11:58:23.885Z,101156.41
2023-06-29T12:00:58.103Z,101165.75
2023-06-29T12:03:25.473Z,101154.66
2023-06-29T12:05:53.811Z,101158.81
2023-06-29T12:08:21.746Z,101150.06
2023-06-29T12:10:48.614Z,101150.13
2023-06-29T12:13:15.400Z,101148.50
2023-06-29T12:18:16.901Z,101151.69
2023-06-29T12:20:46.537Z,101144.00
2023-06-29T12:23:15.476Z,101149.53
2023-06-29T12:25:51.390Z,101144.25
2023-06-29T12:28:18.186Z,101139.72
2023-06-29T12:30:45.360Z,101131.97
2023-06-29T12:33:14.301Z,101130.38
2023-06-29T12:35:41.662Z,101138.84
2023-06-29T12:38:12.700Z,101137.78
2023-06-29T12:40:39.513Z,101143.94
2023-06-29T12:43:06.309Z,101136.78
2023-06-29T12:45:33.033Z,101140.44
2023-06-29T12:47:59.775Z,101143.72
2023-06-29T12:50:26.562Z,101134.88
2023-06-29T12:52:53.830Z,101124.03
2023-06-29T12:55:20.800Z,101125.13
2023-06-29T12:57:47.496Z,101120.13
2023-06-29T13:00:14.718Z,101123.16
2023-06-29T13:02:41.757Z,101112.44
2023-06-29T13:05:09.356Z,101114.72
2023-06-29T13:07:37.203Z,101121.22
2023-06-29T13:10:04.953Z,101113.78
2023-06-29T13:12:31.889Z,101107.78
2023-06-29T13:15:01.856Z,101113.09
2023-06-29T13:17:28.586Z,101108.03
2023-06-29T13:19:55.314Z,101109.44
2023-06-29T13:22:24.180Z,101109.91
2023-06-29T13:24:51.069Z,101104.31
2023-06-29T13:27:18.040Z,101108.34
2023-06-29T13:29:44.715Z,101104.75
2023-06-29T13:32:11.680Z,101107.56
2023-06-29T13:34:38.577Z,101110.00
2023-06-29T13:37:05.650Z,101100.72
2023-06-29T13:39:32.434Z,101105.13
2023-06-29T13:41:59.187Z,101114.34
2023-06-29T13:44:25.827Z,101104.66
2023-06-29T13:46:52.514Z,101104.28
2023-06-29T13:49:19.268Z,101119.09
2023-06-29T13:51:47.114Z,101109.81
2023-06-29T13:54:16.763Z,101101.72
2023-06-29T13:56:43.812Z,101095.22
2023-06-29T13:59:10.857Z,101098.44
2023-06-29T14:01:39.937Z,101101.22
2023-06-29T14:04:08.440Z,101097.25
2023-06-29T14:06:40.794Z,101085.59
2023-06-29T14:09:09.525Z,101096.06
2023-06-29T14:11:36.550Z,101102.13
2023-06-29T14:14:03.556Z,101090.94
2023-06-29T14:16:30.586Z,101091.41
2023-06-29T14:18:58.291Z,101099.44
2023-06-29T14:21:25.231Z,101100.69
2023-06-29T14:23:54.955Z,101100.31
2023-06-29T14:26:22.372Z,101101.97
2023-06-29T14:28:49.143Z,101081.06
2023-06-29T14:31:18.038Z,101093.09
2023-06-29T14:33:45.274Z,101081.03
2023-06-29T14:36:12.222Z,101079.44
2023-06-29T14:38:38.995Z,101083.84
2023-06-29T14:41:05.696Z,101078.63
2023-06-29T14:43:32.454Z,101078.25
2023-06-29T14:45:59.347Z,101077.03
2023-06-29T14:48:27.021Z,101075.03
2023-06-29T14:50:54.032Z,101077.03
2023-06-29T14:53:24.407Z,101073.41
2023-06-29T14:56:04.102Z,101061.38
2023-06-29T14:58:31.244Z,101067.41
2023-06-29T15:00:58.194Z,101069.03
2023-06-29T15:03:25.052Z,101068.59
2023-06-29T15:05:51.779Z,101061.78
2023-06-29T15:08:18.431Z,101050.53
2023-06-29T15:10:45.182Z,101057.75
2023-06-29T15:13:11.934Z,101046.06
2023-06-29T15:15:38.588Z,101054.47
2023-06-29T15:18:06.175Z,101050.78
2023-06-29T15:20:32.910Z,101048.69
2023-06-29T15:22:59.549Z,101051.16
2023-06-29T15:25:26.271Z,101053.53
2023-06-29T15:27:53.160Z,101049.47
2023-06-29T15:30:20.181Z,101044.19
2023-06-29T15:32:47.000Z,101040.56
2023-06-29T15:35:13.737Z,101040.56
2023-06-29T15:37:40.499Z,101035.00
2023-06-29T15:40:08.225Z,101035.84
2023-06-29T15:42:35.022Z,101034.34
2023-06-29T15:45:02.801Z,101037.53
2023-06-29T15:47:29.577Z,101024.31
2023-06-29T15:49:56.920Z,101023.94
2023-06-29T15:52:23.708Z,101019.91
2023-06-29T15:54:50.417Z,101015.13
2023-06-29T15:57:17.085Z,101017.56
2023-06-29T15:59:43.846Z,101019.97
2023-06-29T16:02:10.529Z,101006.31
2023-06-29T16:04:37.271Z,101009.53
2023-06-29T16:07:07.618Z,100998.31
2023-06-29T16:09:35.587Z,100997.53
2023-06-29T16:12:02.274Z,100996.69
2023-06-29T16:14:29.013Z,100997.91
2023-06-29T16:16:55.950Z,100988.22
2023-06-29T16:19:23.552Z,100991.69
2023-06-29T16:21:50.292Z,100981.91
2023-06-29T16:24:17.167Z,100991.34
2023-06-29T16:26:44.725Z,100986.28
2023-06-29T16:29:11.449Z,100981.38
2023-06-29T16:31:38.266Z,100973.66
2023-06-29T16:34:05.326Z,100966.44
2023-06-29T16:36:32.595Z,100967.00
2023-06-29T16:38:59.377Z,100961.59
2023-06-29T16:41:26.056Z,100968.59
2023-06-29T16:43:54.439Z,100965.09
2023-06-29T16:46:21.412Z,100966.72
2023-06-29T16:48:59.274Z,100965.94
2023-06-29T16:51:29.007Z,100951.03
2023-06-29T16:53:56.289Z,100951.03
2023-06-29T16:56:23.035Z,100939.31
2023-06-29T16:58:50.257Z,100928.72
2023-06-29T17:01:17.088Z,100933.44
2023-06-29T17:03:44.978Z,100936.91
2023-06-29T17:06:11.997Z,100935.09
2023-06-29T17:08:41.178Z,100922.41
2023-06-29T17:11:08.481Z,100927.03
2023-06-29T17:13:35.471Z,100919.69
2023-06-29T17:16:02.638Z,100928.97
2023-06-29T17:18:29.540Z,100922.88
2023-06-29T17:20:56.234Z,100915.75
2023-06-29T17:23:22.909Z,100924.16
2023-06-29T17:25:51.756Z,100916.19
2023-06-29T17:28:20.069Z,100907.31
2023-06-29T17:30:46.985Z,100910.25
2023-06-29T17:33:14.772Z,100901.81
2023-06-29T17:35:41.571Z,100907.19
2023-06-29T17:38:08.349Z,100899.66
2023-06-29T17:40:35.066Z,100894.03
2023-06-29T17:43:02.163Z,100894.81
2023-06-29T17:45:29.031Z,100893.09
2023-06-29T17:47:56.425Z,100899.25
2023-06-29T17:50:23.417Z,100899.47
2023-06-29T17:52:50.571Z,100897.78
2023-06-29T17:55:18.430Z,100891.84
2023-06-29T17:57:45.452Z,100880.63
2023-06-29T18:00:13.943Z,100881.59
2023-06-29T18:02:40.918Z,100874.41
2023-06-29T18:05:08.999Z,100880.88
2023-06-29T18:07:36.174Z,100880.34
2023-06-29T18:10:07.695Z,100873.78
2023-06-29T18:12:35.420Z,100865.75
2023-06-29T18:15:02.520Z,100875.50
2023-06-29T18:17:29.313Z,100862.28
2023-06-29T18:19:56.250Z,100863.53
2023-06-29T18:22:23.124Z,100851.53
2023-06-29T18:24:49.918Z,100845.94
2023-06-29T18:27:16.698Z,100848.47
2023-06-29T18:29:43.920Z,100835.69
2023-06-29T18:32:11.416Z,100854.78
2023-06-29T18:34:38.178Z,100858.13
2023-06-29T18:37:05.210Z,100852.59
2023-06-29T18:39:31.964Z,100859.91
2023-06-29T18:41:59.302Z,100851.16
2023-06-29T18:44:26.150Z,100852.84
2023-06-29T18:47:13.657Z,100842.03
2023-06-29T18:49:51.431Z,100840.06
2023-06-29T18:52:20.126Z,100833.66
2023-06-29T18:54:46.971Z,100834.91
2023-06-29T18:57:13.684Z,100832.13
2023-06-29T18:59:40.484Z,100824.94
2023-06-29T19:02:07.331Z,100830.97
2023-06-29T19:04:34.729Z,100824.19
2023-06-29T19:07:02.205Z,100820.19
2023-06-29T19:09:29.852Z,100824.59
2023-06-29T19:11:57.670Z,100822.59
2023-06-29T19:14:25.023Z,100813.75
2023-06-29T19:16:52.010Z,100814.13
2023-06-29T19:19:18.765Z,100817.75
2023-06-29T19:21:49.131Z,100804.91
2023-06-29T19:24:17.677Z,100815.38
2023-06-29T19:26:44.943Z,100817.78
2023-06-29T19:29:12.972Z,100811.38
2023-06-29T19:31:42.000Z,100806.19
2023-06-29T19:34:10.339Z,100794.56
2023-06-29T19:36:37.161Z,100808.97
2023-06-29T19:39:03.948Z,100797.75
2023-06-29T19:41:31.178Z,100795.34
2023-06-29T19:43:57.829Z,100790.16
2023-06-29T19:46:24.708Z,100788.94
2023-06-29T19:48:51.417Z,100784.13
2023-06-29T19:51:18.174Z,100794.97
2023-06-29T19:53:45.522Z,100788.16
2023-06-29T19:56:12.337Z,100784.16
2023-06-29T19:58:39.099Z,100789.75
2023-06-29T20:01:05.819Z,100793.34
2023-06-29T20:03:32.692Z,100785.72
2023-06-29T20:05:59.546Z,100793.75
2023-06-29T20:08:26.336Z,100795.75
2023-06-29T20:10:54.226Z,100790.53
2023-06-29T20:13:20.948Z,100789.75
2023-06-29T20:15:48.020Z,100801.78
2023-06-29T20:18:15.049Z,100784.53
2023-06-29T20:20:41.770Z,100798.53
2023-06-29T20:23:10.386Z,100793.34
2023-06-29T20:25:37.055Z,100795.31
2023-06-29T20:28:03.862Z,100798.06
2023-06-29T20:30:30.569Z,100791.66
2023-06-29T20:32:57.368Z,100788.44
2023-06-29T20:35:24.067Z,100784.84
2023-06-29T20:37:50.739Z,100778.44
2023-06-29T20:40:18.382Z,100782.81
2023-06-29T20:42:45.041Z,100782.81
2023-06-29T20:45:13.516Z,100789.63
2023-06-29T20:47:41.073Z,100777.19
2023-06-29T20:50:08.147Z,100775.16
2023-06-29T20:52:34.802Z,100775.94
2023-06-29T20:55:01.471Z,100781.94
2023-06-29T20:57:28.345Z,100768.75
2023-06-29T20:59:55.532Z,100776.72
2023-06-29T21:02:22.429Z,100765.53
2023-06-29T21:04:49.670Z,100777.09
2023-06-29T21:07:16.644Z,100772.66
2023-06-29T21:09:43.470Z,100775.88
2023-06-29T21:12:10.966Z,100767.03
2023-06-29T21:14:37.866Z,100758.22
2023-06-29T21:17:04.870Z,100761.44
2023-06-29T21:19:31.952Z,100747.00
2023-06-29T21:21:59.167Z,100760.63
2023-06-29T21:24:25.997Z,100746.22
2023-06-29T21:26:53.631Z,100740.59
2023-06-29T21:29:40.644Z,100743.38
2023-06-29T21:32:11.185Z,100740.97
2023-06-29T21:34:38.405Z,100740.56
2023-06-29T21:37:05.737Z,100738.94
2023-06-29T21:39:32.668Z,100724.56
2023-06-29T21:41:59.421Z,100722.09
2023-06-29T21:44:26.769Z,100714.88
2023-06-29T21:46:53.520Z,100704.88
2023-06-29T21:49:20.273Z,100703.69
2023-06-29T21:51:47.174Z,100707.66
2023-06-29T21:54:15.206Z,100712.88
2023-06-29T21:56:42.258Z,100700.44
2023-06-29T21:59:10.037Z,100709.22
2023-06-29T22:01:37.087Z,100710.03
2023-06-29T22:04:04.025Z,100706.41
2023-06-29T22:06:30.910Z,100702.44
2023-06-29T22:08:58.023Z,100699.59
2023-06-29T22:11:27.846Z,100693.19
2023-06-29T22:13:55.191Z,100693.63
2023-06-29T22:16:23.723Z,100691.59
2023-06-29T22:18:52.000Z,100684.78
2023-06-29T22:21:22.301Z,100688.81
2023-06-29T22:23:51.351Z,100677.63
2023-06-29T22:26:18.647Z,100669.22
2023-06-29T22:28:46.392Z,100673.19
2023-06-29T22:31:15.423Z,100672.03
2023-06-29T22:33:42.467Z,100666.41
2023-06-29T22:36:09.458Z,100668.44
2023-06-29T22:38:36.476Z,100666.03
2023-06-29T22:41:05.670Z,100671.63
2023-06-29T22:43:33.377Z,100662.41
2023-06-29T22:46:01.243Z,100658.84
2023-06-29T22:48:28.008Z,100649.22
2023-06-29T22:50:56.858Z,100648.44
2023-06-29T22:53:24.412Z,100636.03
2023-06-29T22:55:51.143Z,100642.81
2023-06-29T22:58:25.416Z,100641.63
2023-06-29T23:00:56.031Z,100642.00
2023-06-29T23:03:23.433Z,100631.59
2023-06-29T23:05:52.828Z,100633.19
2023-06-29T23:08:19.527Z,100634.00
2023-06-29T23:10:50.392Z,100627.59
2023-06-29T23:13:17.550Z,100630.00
2023-06-29T23:15:46.243Z,100622.81
2023-06-29T23:18:14.191Z,100616.38
2023-06-29T23:20:47.741Z,100619.56
2023-06-29T23:23:14.740Z,100606.78
2023-06-29T23:25:42.719Z,100606.75
2023-06-29T23:28:09.631Z,100603.56
2023-06-29T23:30:36.755Z,100601.97
2023-06-29T23:33:03.642Z,100598.78
2023-06-29T23:35:30.355Z,100595.16
2023-06-29T23:37:57.041Z,100584.72
2023-06-29T23:40:23.776Z,100585.13
2023-06-29T23:42:51.112Z,100583.53
2023-06-29T23:45:17.987Z,100582.72
2023-06-29T23:47:44.727Z,100576.31
2023-06-29T23:50:14.103Z,100573.13
2023-06-29T23:52:41.766Z,100561.94
2023-06-29T23:55:10.515Z,100557.94
2023-06-29T23:57:37.187Z,100552.34
